sensor_id;sensor_type;location;lat;lon;timestamp;pressure;altitude;pressure_sealevel;temperature;humidity
78717;BME280;68045;50.042;14.432;2023-11-19T00:02:38;98594.88;;;3.04;86.32
78717;BME280;68045;50.042;14.432;2023-11-19T00:06:39;98572.94;;;2.98;86.46
78717;BME280;68045;50.042;14.432;2023-11-19T00:10:40;98580.81;;;2.90;86.96
78717;BME280;68045;50.042;14.432;2023-11-19T00:14:41;98551.47;;;2.88;87.80
78717;BME280;68045;50.042;14.432;2023-11-19T00:18:42;98550.44;;;2.97;86.66
78717;BME280;68045;50.042;14.432;2023-11-19T00:22:43;98535.13;;;2.94;86.42
78717;BME280;68045;50.042;14.432;2023-11-19T00:26:44;98539.91;;;2.91;85.79
78717;BME280;68045;50.042;14.432;2023-11-19T00:30:45;98531.09;;;2.92;86.60
78717;BME280;68045;50.042;14.432;2023-11-19T00:34:46;98511.06;;;2.92;86.84
78717;BME280;68045;50.042;14.432;2023-11-19T00:38:48;98514.72;;;2.83;86.64
78717;BME280;68045;50.042;14.432;2023-11-19T00:42:49;98499.59;;;2.79;86.94
78717;BME280;68045;50.042;14.432;2023-11-19T00:46:49;98508.63;;;2.91;86.69
78717;BME280;68045;50.042;14.432;2023-11-19T00:50:50;98474.31;;;3.02;86.18
78717;BME280;68045;50.042;14.432;2023-11-19T00:54:50;98472.31;;;2.89;86.29
78717;BME280;68045;50.042;14.432;2023-11-19T00:58:51;98462.34;;;2.93;87.10
78717;BME280;68045;50.042;14.432;2023-11-19T01:02:52;98467.47;;;3.01;86.32
78717;BME280;68045;50.042;14.432;2023-11-19T01:06:54;98472.88;;;2.99;87.01
78717;BME280;68045;50.042;14.432;2023-11-19T01:10:55;98481.19;;;2.95;87.52
78717;BME280;68045;50.042;14.432;2023-11-19T01:14:55;98461.13;;;3.03;87.06
78717;BME280;68045;50.042;14.432;2023-11-19T01:18:58;98439.78;;;3.00;87.42
78717;BME280;68045;50.042;14.432;2023-11-19T01:22:59;98440.78;;;2.99;88.50
78717;BME280;68045;50.042;14.432;2023-11-19T01:27:00;98427.75;;;2.99;87.67
78717;BME280;68045;50.042;14.432;2023-11-19T01:31:01;98419.13;;;2.98;88.57
78717;BME280;68045;50.042;14.432;2023-11-19T01:35:03;98407.38;;;3.17;87.51
78717;BME280;68045;50.042;14.432;2023-11-19T01:39:05;98386.38;;;2.96;89.17
78717;BME280;68045;50.042;14.432;2023-11-19T01:43:05;98386.22;;;2.97;88.88
78717;BME280;68045;50.042;14.432;2023-11-19T01:47:07;98378.41;;;2.97;88.33
78717;BME280;68045;50.042;14.432;2023-11-19T01:51:09;98363.91;;;3.10;88.25
78717;BME280;68045;50.042;14.432;2023-11-19T01:55:11;98348.09;;;3.11;89.01
78717;BME280;68045;50.042;14.432;2023-11-19T01:59:13;98362.66;;;3.20;88.23
78717;BME280;68045;50.042;14.432;2023-11-19T02:03:15;98369.31;;;3.08;88.43
78717;BME280;68045;50.042;14.432;2023-11-19T02:07:16;98369.97;;;3.10;88.76
78717;BME280;68045;50.042;14.432;2023-11-19T02:11:18;98358.88;;;3.08;88.67
78717;BME280;68045;50.042;14.432;2023-11-19T02:15:20;98334.34;;;3.17;88.80
78717;BME280;68045;50.042;14.432;2023-11-19T02:19:22;98321.75;;;3.21;88.86
78717;BME280;68045;50.042;14.432;2023-11-19T02:23:25;98309.44;;;3.15;89.64
78717;BME280;68045;50.042;14.432;2023-11-19T02:27:53;98293.25;;;3.19;89.26
78717;BME280;68045;50.042;14.432;2023-11-19T02:31:58;98302.59;;;3.14;89.55
78717;BME280;68045;50.042;14.432;2023-11-19T02:35:59;98300.69;;;3.22;89.29
78717;BME280;68045;50.042;14.432;2023-11-19T02:40:00;98300.78;;;3.14;89.70
78717;BME280;68045;50.042;14.432;2023-11-19T02:44:03;98288.56;;;3.15;89.51
78717;BME280;68045;50.042;14.432;2023-11-19T02:48:07;98291.63;;;3.18;89.98
78717;BME280;68045;50.042;14.432;2023-11-19T02:52:08;98274.81;;;3.21;90.04
78717;BME280;68045;50.042;14.432;2023-11-19T02:56:11;98281.81;;;3.20;89.39
78717;BME280;68045;50.042;14.432;2023-11-19T03:00:26;98260.25;;;3.12;90.28
78717;BME280;68045;50.042;14.432;2023-11-19T03:04:38;98255.19;;;3.25;89.92
78717;BME280;68045;50.042;14.432;2023-11-19T03:08:40;98257.44;;;3.28;90.13
78717;BME280;68045;50.042;14.432;2023-11-19T03:12:42;98244.31;;;3.21;90.44
78717;BME280;68045;50.042;14.432;2023-11-19T03:16:46;98220.19;;;3.34;90.25
78717;BME280;68045;50.042;14.432;2023-11-19T03:20:47;98213.81;;;3.22;90.86
78717;BME280;68045;50.042;14.432;2023-11-19T03:24:51;98205.81;;;3.23;90.57
78717;BME280;68045;50.042;14.432;2023-11-19T03:28:52;98206.06;;;3.28;90.53
78717;BME280;68045;50.042;14.432;2023-11-19T03:32:53;98184.22;;;3.29;90.78
78717;BME280;68045;50.042;14.432;2023-11-19T03:36:54;98194.41;;;3.24;90.82
78717;BME280;68045;50.042;14.432;2023-11-19T03:40:55;98179.88;;;3.37;90.60
78717;BME280;68045;50.042;14.432;2023-11-19T03:44:56;98170.63;;;3.34;90.37
78717;BME280;68045;50.042;14.432;2023-11-19T03:48:57;98165.84;;;3.38;90.56
78717;BME280;68045;50.042;14.432;2023-11-19T03:52:58;98156.41;;;3.37;90.14
78717;BME280;68045;50.042;14.432;2023-11-19T03:56:59;98165.84;;;3.38;90.54
78717;BME280;68045;50.042;14.432;2023-11-19T04:01:01;98166.16;;;3.28;90.98
78717;BME280;68045;50.042;14.432;2023-11-19T04:05:02;98146.59;;;3.39;91.14
78717;BME280;68045;50.042;14.432;2023-11-19T04:09:04;98150.63;;;3.41;91.11
78717;BME280;68045;50.042;14.432;2023-11-19T04:13:05;98139.59;;;3.39;91.23
78717;BME280;68045;50.042;14.432;2023-11-19T04:17:07;98132.84;;;3.30;91.42
78717;BME280;68045;50.042;14.432;2023-11-19T04:21:09;98122.06;;;3.33;91.61
78717;BME280;68045;50.042;14.432;2023-11-19T04:25:10;98112.72;;;3.45;91.34
78717;BME280;68045;50.042;14.432;2023-11-19T04:29:16;98101.31;;;3.46;91.02
78717;BME280;68045;50.042;14.432;2023-11-19T04:33:20;98097.22;;;3.37;91.38
78717;BME280;68045;50.042;14.432;2023-11-19T04:37:21;98103.22;;;3.38;91.84
78717;BME280;68045;50.042;14.432;2023-11-19T04:41:22;98079.81;;;3.44;91.37
78717;BME280;68045;50.042;14.432;2023-11-19T04:45:23;98083.66;;;3.48;91.19
78717;BME280;68045;50.042;14.432;2023-11-19T04:49:24;98069.44;;;3.51;91.83
78717;BME280;68045;50.042;14.432;2023-11-19T04:53:27;98057.81;;;3.53;91.59
78717;BME280;68045;50.042;14.432;2023-11-19T04:57:28;98036.38;;;3.58;91.76
78717;BME280;68045;50.042;14.432;2023-11-19T05:01:29;98017.03;;;3.46;91.78
78717;BME280;68045;50.042;14.432;2023-11-19T05:05:29;98015.78;;;3.42;92.85
78717;BME280;68045;50.042;14.432;2023-11-19T05:09:31;98024.19;;;3.37;92.42
78717;BME280;68045;50.042;14.432;2023-11-19T05:13:32;97999.19;;;3.49;92.62
78717;BME280;68045;50.042;14.432;2023-11-19T05:17:33;97996.97;;;3.46;92.36
78717;BME280;68045;50.042;14.432;2023-11-19T05:21:34;98005.59;;;3.47;92.89
78717;BME280;68045;50.042;14.432;2023-11-19T05:25:36;98007.16;;;3.41;93.61
78717;BME280;68045;50.042;14.432;2023-11-19T05:29:37;98002.22;;;3.53;92.66
78717;BME280;68045;50.042;14.432;2023-11-19T05:33:39;97981.53;;;3.51;93.26
78717;BME280;68045;50.042;14.432;2023-11-19T05:37:40;97973.19;;;3.63;92.30
78717;BME280;68045;50.042;14.432;2023-11-19T05:41:41;97970.72;;;3.54;93.03
78717;BME280;68045;50.042;14.432;2023-11-19T05:45:42;97978.34;;;3.56;93.04
78717;BME280;68045;50.042;14.432;2023-11-19T05:49:44;97961.72;;;3.64;93.05
78717;BME280;68045;50.042;14.432;2023-11-19T05:53:45;97955.47;;;3.58;93.36
78717;BME280;68045;50.042;14.432;2023-11-19T05:57:46;97958.59;;;3.75;92.75
78717;BME280;68045;50.042;14.432;2023-11-19T06:01:47;97959.34;;;3.69;93.18
78717;BME280;68045;50.042;14.432;2023-11-19T06:05:48;97949.53;;;3.71;93.10
78717;BME280;68045;50.042;14.432;2023-11-19T06:09:49;97939.50;;;3.68;93.62
78717;BME280;68045;50.042;14.432;2023-11-19T06:13:50;97929.69;;;3.76;92.83
78717;BME280;68045;50.042;14.432;2023-11-19T06:17:51;97930.69;;;3.75;92.27
78717;BME280;68045;50.042;14.432;2023-11-19T06:21:53;97944.13;;;3.79;92.74
78717;BME280;68045;50.042;14.432;2023-11-19T06:25:54;97930.44;;;3.70;93.13
78717;BME280;68045;50.042;14.432;2023-11-19T06:29:55;97929.50;;;3.84;92.85
78717;BME280;68045;50.042;14.432;2023-11-19T06:33:57;97937.56;;;3.90;92.03
78717;BME280;68045;50.042;14.432;2023-11-19T06:37:58;97926.94;;;3.91;92.54
78717;BME280;68045;50.042;14.432;2023-11-19T06:42:00;97923.91;;;3.94;92.35
78717;BME280;68045;50.042;14.432;2023-11-19T06:46:01;97917.75;;;4.02;91.52
78717;BME280;68045;50.042;14.432;2023-11-19T06:50:02;97923.94;;;4.01;91.93
78717;BME280;68045;50.042;14.432;2023-11-19T06:54:06;97929.59;;;4.04;91.96
78717;BME280;68045;50.042;14.432;2023-11-19T06:58:07;97941.44;;;4.07;91.22
78717;BME280;68045;50.042;14.432;2023-11-19T07:02:08;97925.56;;;4.02;92.35
78717;BME280;68045;50.042;14.432;2023-11-19T07:06:10;97925.34;;;3.97;92.18
78717;BME280;68045;50.042;14.432;2023-11-19T07:10:11;97930.97;;;4.00;92.30
78717;BME280;68045;50.042;14.432;2023-11-19T07:14:12;97910.72;;;4.09;92.55
78717;BME280;68045;50.042;14.432;2023-11-19T07:18:13;97925.56;;;4.15;92.33
78717;BME280;68045;50.042;14.432;2023-11-19T07:22:15;97913.94;;;4.18;92.36
78717;BME280;68045;50.042;14.432;2023-11-19T07:26:16;97912.75;;;4.20;92.65
78717;BME280;68045;50.042;14.432;2023-11-19T07:30:17;97928.63;;;4.19;91.87
78717;BME280;68045;50.042;14.432;2023-11-19T07:34:18;97910.94;;;4.27;92.20
78717;BME280;68045;50.042;14.432;2023-11-19T07:38:20;97913.75;;;4.19;93.01
78717;BME280;68045;50.042;14.432;2023-11-19T07:42:21;97901.72;;;4.25;93.25
78717;BME280;68045;50.042;14.432;2023-11-19T07:46:22;97911.34;;;4.24;93.39
78717;BME280;68045;50.042;14.432;2023-11-19T07:50:23;97914.56;;;4.20;93.17
78717;BME280;68045;50.042;14.432;2023-11-19T07:54:25;97926.41;;;4.29;93.44
78717;BME280;68045;50.042;14.432;2023-11-19T07:58:26;97933.84;;;4.25;94.27
78717;BME280;68045;50.042;14.432;2023-11-19T08:02:28;97921.00;;;4.24;93.98
78717;BME280;68045;50.042;14.432;2023-11-19T08:06:29;97900.13;;;4.30;93.64
78717;BME280;68045;50.042;14.432;2023-11-19T08:10:31;97906.53;;;4.34;93.49
78717;BME280;68045;50.042;14.432;2023-11-19T08:14:34;97890.28;;;4.46;93.67
78717;BME280;68045;50.042;14.432;2023-11-19T08:18:35;97885.84;;;4.39;94.59
78717;BME280;68045;50.042;14.432;2023-11-19T08:22:36;97895.09;;;4.49;94.45
78717;BME280;68045;50.042;14.432;2023-11-19T08:26:38;97880.81;;;4.58;93.73
78717;BME280;68045;50.042;14.432;2023-11-19T08:30:39;97888.06;;;4.69;93.60
78717;BME280;68045;50.042;14.432;2023-11-19T08:34:39;97875.41;;;4.79;92.80
78717;BME280;68045;50.042;14.432;2023-11-19T08:38:40;97865.34;;;4.89;93.20
78717;BME280;68045;50.042;14.432;2023-11-19T08:42:42;97863.09;;;5.00;92.93
78717;BME280;68045;50.042;14.432;2023-11-19T08:46:49;97875.34;;;5.12;92.11
78717;BME280;68045;50.042;14.432;2023-11-19T08:50:51;97878.78;;;5.00;92.98
78717;BME280;68045;50.042;14.432;2023-11-19T08:54:52;97866.91;;;5.17;92.66
78717;BME280;68045;50.042;14.432;2023-11-19T08:58:53;97866.66;;;5.32;92.57
78717;BME280;68045;50.042;14.432;2023-11-19T09:02:54;97885.16;;;5.43;92.03
78717;BME280;68045;50.042;14.432;2023-11-19T09:06:57;97882.88;;;5.54;92.08
78717;BME280;68045;50.042;14.432;2023-11-19T09:10:58;97879.81;;;5.63;91.57
78717;BME280;68045;50.042;14.432;2023-11-19T09:14:59;97876.41;;;5.63;92.96
78717;BME280;68045;50.042;14.432;2023-11-19T09:19:00;97883.41;;;5.75;92.21
78717;BME280;68045;50.042;14.432;2023-11-19T09:23:03;97871.84;;;5.90;92.39
78717;BME280;68045;50.042;14.432;2023-11-19T09:27:04;97881.84;;;6.06;91.54
78717;BME280;68045;50.042;14.432;2023-11-19T09:31:17;97854.72;;;6.57;90.21
78717;BME280;68045;50.042;14.432;2023-11-19T09:35:19;97852.03;;;7.07;87.21
78717;BME280;68045;50.042;14.432;2023-11-19T09:39:20;97868.72;;;6.94;87.66
78717;BME280;68045;50.042;14.432;2023-11-19T09:43:22;97875.03;;;6.86;88.85
78717;BME280;68045;50.042;14.432;2023-11-19T09:47:25;97878.41;;;6.94;89.21
78717;BME280;68045;50.042;14.432;2023-11-19T09:51:28;97872.41;;;8.26;83.93
78717;BME280;68045;50.042;14.432;2023-11-19T09:55:29;97865.81;;;7.57;86.21
78717;BME280;68045;50.042;14.432;2023-11-19T09:59:30;97865.44;;;7.72;86.10
78717;BME280;68045;50.042;14.432;2023-11-19T10:03:33;97849.22;;;7.75;86.94
78717;BME280;68045;50.042;14.432;2023-11-19T10:07:39;97858.34;;;7.91;86.80
78717;BME280;68045;50.042;14.432;2023-11-19T10:11:40;97842.06;;;8.12;86.57
78717;BME280;68045;50.042;14.432;2023-11-19T10:15:43;97844.84;;;8.83;82.75
78717;BME280;68045;50.042;14.432;2023-11-19T10:19:44;97851.69;;;10.28;77.24
78717;BME280;68045;50.042;14.432;2023-11-19T10:23:51;97856.00;;;15.88;56.32
78717;BME280;68045;50.042;14.432;2023-11-19T10:27:53;97830.34;;;21.29;40.54
78717;BME280;68045;50.042;14.432;2023-11-19T10:31:59;97841.34;;;20.88;40.94
78717;BME280;68045;50.042;14.432;2023-11-19T10:36:00;97822.97;;;15.30;56.27
78717;BME280;68045;50.042;14.432;2023-11-19T10:40:01;97810.44;;;15.95;54.41
78717;BME280;68045;50.042;14.432;2023-11-19T10:44:05;97811.94;;;14.46;59.80
78717;BME280;68045;50.042;14.432;2023-11-19T10:48:06;97814.19;;;13.71;64.51
78717;BME280;68045;50.042;14.432;2023-11-19T10:52:08;97823.94;;;16.09;56.52
78717;BME280;68045;50.042;14.432;2023-11-19T10:56:10;97794.94;;;13.29;66.31
78717;BME280;68045;50.042;14.432;2023-11-19T11:00:13;97793.78;;;12.67;70.71
78717;BME280;68045;50.042;14.432;2023-11-19T11:04:25;97780.75;;;12.55;71.98
78717;BME280;68045;50.042;14.432;2023-11-19T11:08:27;97781.94;;;18.54;51.11
78717;BME280;68045;50.042;14.432;2023-11-19T11:12:28;97792.53;;;22.61;40.42
78717;BME280;68045;50.042;14.432;2023-11-19T11:16:30;97799.56;;;22.27;40.37
78717;BME280;68045;50.042;14.432;2023-11-19T11:20:33;97792.53;;;24.71;34.49
78717;BME280;68045;50.042;14.432;2023-11-19T11:41:24;97794.88;;;23.86;34.08
78717;BME280;68045;50.042;14.432;2023-11-19T11:45:39;97791.09;;;26.64;30.43
78717;BME280;68045;50.042;14.432;2023-11-19T11:49:43;97798.75;;;23.76;34.10
78717;BME280;68045;50.042;14.432;2023-11-19T11:53:47;97790.25;;;25.55;31.90
78717;BME280;68045;50.042;14.432;2023-11-19T11:57:48;97782.06;;;25.52;31.13
78717;BME280;68045;50.042;14.432;2023-11-19T12:01:58;97783.41;;;24.09;33.66
78717;BME280;68045;50.042;14.432;2023-11-19T12:05:59;97776.94;;;18.15;47.02
78717;BME280;68045;50.042;14.432;2023-11-19T12:10:08;97781.56;;;14.93;55.94
78717;BME280;68045;50.042;14.432;2023-11-19T12:14:09;97778.44;;;13.99;61.12
78717;BME280;68045;50.042;14.432;2023-11-19T12:18:10;97751.25;;;12.84;65.05
78717;BME280;68045;50.042;14.432;2023-11-19T12:22:11;97776.66;;;12.80;66.82
78717;BME280;68045;50.042;14.432;2023-11-19T12:26:42;97778.09;;;12.55;68.28
78717;BME280;68045;50.042;14.432;2023-11-19T12:30:43;97778.25;;;12.44;69.03
78717;BME280;68045;50.042;14.432;2023-11-19T12:34:44;97772.59;;;12.67;68.50
78717;BME280;68045;50.042;14.432;2023-11-19T12:38:47;97767.91;;;12.79;68.05
78717;BME280;68045;50.042;14.432;2023-11-19T12:42:48;97752.69;;;14.61;61.27
78717;BME280;68045;50.042;14.432;2023-11-19T12:47:03;97754.81;;;14.44;62.11
78717;BME280;68045;50.042;14.432;2023-11-19T12:51:05;97732.50;;;15.40;58.16
78717;BME280;68045;50.042;14.432;2023-11-19T12:55:25;97739.06;;;13.40;65.04
78717;BME280;68045;50.042;14.432;2023-11-19T12:59:27;97744.34;;;12.78;68.06
78717;BME280;68045;50.042;14.432;2023-11-19T13:03:32;97743.97;;;12.22;70.71
78717;BME280;68045;50.042;14.432;2023-11-19T13:07:34;97732.69;;;12.04;71.85
78717;BME280;68045;50.042;14.432;2023-11-19T13:11:35;97721.88;;;12.06;72.54
78717;BME280;68045;50.042;14.432;2023-11-19T13:15:37;97724.75;;;12.04;72.98
78717;BME280;68045;50.042;14.432;2023-11-19T13:19:38;97722.06;;;12.31;72.09
78717;BME280;68045;50.042;14.432;2023-11-19T13:23:39;97722.59;;;12.28;71.55
78717;BME280;68045;50.042;14.432;2023-11-19T13:27:39;97724.66;;;12.21;72.34
78717;BME280;68045;50.042;14.432;2023-11-19T13:31:40;97710.63;;;12.26;72.72
78717;BME280;68045;50.042;14.432;2023-11-19T13:35:41;97713.19;;;12.10;73.12
78717;BME280;68045;50.042;14.432;2023-11-19T13:39:42;97707.06;;;15.24;61.32
78717;BME280;68045;50.042;14.432;2023-11-19T13:43:43;97705.06;;;16.23;57.51
78717;BME280;68045;50.042;14.432;2023-11-19T13:47:45;97716.97;;;15.62;59.44
78717;BME280;68045;50.042;14.432;2023-11-19T13:51:46;97718.22;;;15.75;58.19
78717;BME280;68045;50.042;14.432;2023-11-19T13:55:47;97722.34;;;14.88;61.58
78717;BME280;68045;50.042;14.432;2023-11-19T13:59:48;97701.16;;;15.32;60.39
78717;BME280;68045;50.042;14.432;2023-11-19T14:03:50;97718.69;;;14.58;62.80
78717;BME280;68045;50.042;14.432;2023-11-19T14:07:51;97717.91;;;14.01;65.86
78717;BME280;68045;50.042;14.432;2023-11-19T14:11:52;97711.00;;;13.65;67.52
78717;BME280;68045;50.042;14.432;2023-11-19T14:15:53;97711.66;;;13.19;68.89
78717;BME280;68045;50.042;14.432;2023-11-19T14:19:55;97721.91;;;13.01;70.38
78717;BME280;68045;50.042;14.432;2023-11-19T14:23:56;97710.53;;;13.00;70.51
78717;BME280;68045;50.042;14.432;2023-11-19T14:27:57;97706.28;;;12.47;72.82
78717;BME280;68045;50.042;14.432;2023-11-19T14:31:58;97716.09;;;12.09;75.12
78717;BME280;68045;50.042;14.432;2023-11-19T14:35:59;97714.16;;;11.72;76.65
78717;BME280;68045;50.042;14.432;2023-11-19T14:40:00;97721.56;;;11.48;77.70
78717;BME280;68045;50.042;14.432;2023-11-19T14:44:06;97708.69;;;11.52;78.36
78717;BME280;68045;50.042;14.432;2023-11-19T14:48:07;97702.09;;;11.54;77.29
78717;BME280;68045;50.042;14.432;2023-11-19T14:52:08;97719.38;;;11.40;78.43
78717;BME280;68045;50.042;14.432;2023-11-19T14:56:11;97714.19;;;11.23;79.18
78717;BME280;68045;50.042;14.432;2023-11-19T15:00:13;97714.50;;;11.05;80.35
78717;BME280;68045;50.042;14.432;2023-11-19T15:04:14;97705.97;;;10.98;80.63
78717;BME280;68045;50.042;14.432;2023-11-19T15:08:17;97710.81;;;10.84;81.16
78717;BME280;68045;50.042;14.432;2023-11-19T15:12:17;97719.09;;;10.71;82.75
78717;BME280;68045;50.042;14.432;2023-11-19T15:16:18;97728.56;;;10.67;82.34
78717;BME280;68045;50.042;14.432;2023-11-19T15:20:26;97729.44;;;10.56;82.77
78717;BME280;68045;50.042;14.432;2023-11-19T15:24:30;97741.38;;;10.58;81.92
78717;BME280;68045;50.042;14.432;2023-11-19T15:28:31;97743.41;;;10.73;81.76
78717;BME280;68045;50.042;14.432;2023-11-19T15:32:32;97736.50;;;10.50;82.44
78717;BME280;68045;50.042;14.432;2023-11-19T15:36:33;97746.59;;;10.36;82.26
78717;BME280;68045;50.042;14.432;2023-11-19T15:40:36;97739.41;;;10.32;83.25
78717;BME280;68045;50.042;14.432;2023-11-19T15:44:38;97736.75;;;10.15;84.55
78717;BME280;68045;50.042;14.432;2023-11-19T15:48:39;97733.78;;;10.11;83.92
78717;BME280;68045;50.042;14.432;2023-11-19T15:52:40;97739.38;;;10.15;84.22
78717;BME280;68045;50.042;14.432;2023-11-19T15:56:41;97740.09;;;10.10;83.64
78717;BME280;68045;50.042;14.432;2023-11-19T16:00:42;97752.56;;;10.15;82.80
78717;BME280;68045;50.042;14.432;2023-11-19T16:04:47;97750.31;;;10.07;83.61
78717;BME280;68045;50.042;14.432;2023-11-19T16:08:48;97761.25;;;9.99;83.60
78717;BME280;68045;50.042;14.432;2023-11-19T16:12:50;97759.25;;;10.06;82.51
78717;BME280;68045;50.042;14.432;2023-11-19T16:16:51;97748.16;;;10.04;82.29
78717;BME280;68045;50.042;14.432;2023-11-19T16:20:54;97764.91;;;9.98;82.87
78717;BME280;68045;50.042;14.432;2023-11-19T16:24:56;97754.53;;;9.91;84.08
78717;BME280;68045;50.042;14.432;2023-11-19T16:28:57;97758.69;;;9.87;83.37
78717;BME280;68045;50.042;14.432;2023-11-19T16:32:58;97749.75;;;9.88;83.33
78717;BME280;68045;50.042;14.432;2023-11-19T16:36:59;97757.66;;;9.88;82.92
78717;BME280;68045;50.042;14.432;2023-11-19T16:41:00;97744.63;;;9.81;83.31
78717;BME280;68045;50.042;14.432;2023-11-19T16:45:01;97753.84;;;9.67;84.68
78717;BME280;68045;50.042;14.432;2023-11-19T16:49:02;97757.88;;;9.58;84.86
78717;BME280;68045;50.042;14.432;2023-11-19T16:53:03;97764.97;;;9.41;85.74
78717;BME280;68045;50.042;14.432;2023-11-19T16:57:05;97772.66;;;9.30;87.08
78717;BME280;68045;50.042;14.432;2023-11-19T17:01:05;97786.22;;;9.11;88.69
78717;BME280;68045;50.042;14.432;2023-11-19T17:05:11;97772.72;;;9.07;89.00
78717;BME280;68045;50.042;14.432;2023-11-19T17:09:12;97778.22;;;9.05;89.02
78717;BME280;68045;50.042;14.432;2023-11-19T17:13:13;97784.41;;;8.99;89.63
78717;BME280;68045;50.042;14.432;2023-11-19T17:17:15;97783.72;;;9.04;89.28
78717;BME280;68045;50.042;14.432;2023-11-19T17:21:16;97776.84;;;9.03;89.92
78717;BME280;68045;50.042;14.432;2023-11-19T17:25:17;97778.34;;;8.99;90.23
78717;BME280;68045;50.042;14.432;2023-11-19T17:29:18;97782.25;;;8.85;90.82
78717;BME280;68045;50.042;14.432;2023-11-19T17:33:19;97766.56;;;8.78;91.34
78717;BME280;68045;50.042;14.432;2023-11-19T17:37:21;97781.00;;;8.64;92.02
78717;BME280;68045;50.042;14.432;2023-11-19T17:41:22;97780.53;;;8.67;91.84
78717;BME280;68045;50.042;14.432;2023-11-19T17:45:23;97787.53;;;8.61;91.60
78717;BME280;68045;50.042;14.432;2023-11-19T17:49:24;97789.47;;;8.54;91.34
78717;BME280;68045;50.042;14.432;2023-11-19T17:53:25;97781.59;;;8.54;92.26
78717;BME280;68045;50.042;14.432;2023-11-19T17:57:25;97765.81;;;8.54;92.41
78717;BME280;68045;50.042;14.432;2023-11-19T18:01:27;97766.00;;;8.52;92.12
78717;BME280;68045;50.042;14.432;2023-11-19T18:05:27;97759.06;;;8.46;92.01
78717;BME280;68045;50.042;14.432;2023-11-19T18:09:28;97769.09;;;8.49;92.07
78717;BME280;68045;50.042;14.432;2023-11-19T18:13:29;97757.78;;;8.49;91.78
78717;BME280;68045;50.042;14.432;2023-11-19T18:17:30;97769.34;;;8.48;91.31
78717;BME280;68045;50.042;14.432;2023-11-19T18:21:31;97765.00;;;8.53;90.09
78717;BME280;68045;50.042;14.432;2023-11-19T18:25:33;97769.19;;;8.66;88.85
78717;BME280;68045;50.042;14.432;2023-11-19T18:29:34;97760.50;;;8.89;87.59
78717;BME280;68045;50.042;14.432;2023-11-19T18:33:36;97758.97;;;9.17;85.80
78717;BME280;68045;50.042;14.432;2023-11-19T18:37:38;97759.72;;;9.29;85.08
78717;BME280;68045;50.042;14.432;2023-11-19T18:41:40;97753.75;;;9.33;84.78
78717;BME280;68045;50.042;14.432;2023-11-19T18:45:41;97752.72;;;9.34;84.51
78717;BME280;68045;50.042;14.432;2023-11-19T18:49:41;97752.28;;;9.38;84.43
78717;BME280;68045;50.042;14.432;2023-11-19T18:53:42;97750.19;;;9.40;83.62
78717;BME280;68045;50.042;14.432;2023-11-19T18:57:44;97756.00;;;9.42;83.34
78717;BME280;68045;50.042;14.432;2023-11-19T19:01:49;97752.16;;;9.61;81.49
78717;BME280;68045;50.042;14.432;2023-11-19T19:05:50;97747.06;;;9.71;80.79
78717;BME280;68045;50.042;14.432;2023-11-19T19:09:51;97749.47;;;9.73;80.44
78717;BME280;68045;50.042;14.432;2023-11-19T19:13:55;97758.84;;;9.80;79.22
78717;BME280;68045;50.042;14.432;2023-11-19T19:17:56;97765.13;;;9.79;78.67
78717;BME280;68045;50.042;14.432;2023-11-19T19:21:57;97768.91;;;9.83;78.44
78717;BME280;68045;50.042;14.432;2023-11-19T19:25:58;97772.97;;;9.91;78.13
78717;BME280;68045;50.042;14.432;2023-11-19T19:30:00;97785.25;;;9.85;78.44
78717;BME280;68045;50.042;14.432;2023-11-19T19:34:00;97776.75;;;9.95;77.45
78717;BME280;68045;50.042;14.432;2023-11-19T19:38:01;97778.50;;;9.89;77.56
78717;BME280;68045;50.042;14.432;2023-11-19T19:42:02;97777.34;;;9.85;76.84
78717;BME280;68045;50.042;14.432;2023-11-19T19:46:04;97771.03;;;9.86;76.48
78717;BME280;68045;50.042;14.432;2023-11-19T19:50:06;97779.59;;;9.94;75.83
78717;BME280;68045;50.042;14.432;2023-11-19T19:54:10;97783.53;;;9.91;76.05
78717;BME280;68045;50.042;14.432;2023-11-19T19:58:11;97779.53;;;9.88;75.98
78717;BME280;68045;50.042;14.432;2023-11-19T20:02:15;97776.50;;;9.97;75.88
78717;BME280;68045;50.042;14.432;2023-11-19T20:06:16;97771.78;;;9.99;75.41
78717;BME280;68045;50.042;14.432;2023-11-19T20:10:21;97779.44;;;10.00;75.80
78717;BME280;68045;50.042;14.432;2023-11-19T20:14:22;97774.44;;;9.99;75.53
78717;BME280;68045;50.042;14.432;2023-11-19T20:18:25;97779.03;;;9.91;76.08
78717;BME280;68045;50.042;14.432;2023-11-19T20:22:28;97774.03;;;10.07;76.18
78717;BME280;68045;50.042;14.432;2023-11-19T20:26:31;97777.06;;;9.99;76.99
78717;BME280;68045;50.042;14.432;2023-11-19T20:30:33;97783.22;;;10.04;77.18
78717;BME280;68045;50.042;14.432;2023-11-19T20:34:35;97788.84;;;10.08;77.35
78717;BME280;68045;50.042;14.432;2023-11-19T20:38:36;97794.41;;;10.11;77.33
78717;BME280;68045;50.042;14.432;2023-11-19T20:42:38;97808.41;;;10.12;77.92
78717;BME280;68045;50.042;14.432;2023-11-19T20:46:39;97799.38;;;10.08;78.07
78717;BME280;68045;50.042;14.432;2023-11-19T20:50:40;97800.09;;;10.03;78.72
78717;BME280;68045;50.042;14.432;2023-11-19T20:54:41;97799.53;;;10.18;77.83
78717;BME280;68045;50.042;14.432;2023-11-19T20:58:44;97803.63;;;10.09;78.56
78717;BME280;68045;50.042;14.432;2023-11-19T21:02:47;97807.34;;;10.13;78.39
78717;BME280;68045;50.042;14.432;2023-11-19T21:06:52;97822.06;;;10.09;78.73
78717;BME280;68045;50.042;14.432;2023-11-19T21:10:53;97805.06;;;10.16;77.98
78717;BME280;68045;50.042;14.432;2023-11-19T21:14:54;97806.16;;;10.21;78.42
78717;BME280;68045;50.042;14.432;2023-11-19T21:18:55;97801.84;;;10.14;77.98
78717;BME280;68045;50.042;14.432;2023-11-19T21:22:56;97811.84;;;10.12;78.37
78717;BME280;68045;50.042;14.432;2023-11-19T21:26:57;97812.78;;;10.06;78.93
78717;BME280;68045;50.042;14.432;2023-11-19T21:30:58;97831.81;;;10.08;79.05
78717;BME280;68045;50.042;14.432;2023-11-19T21:34:59;97818.13;;;9.95;79.61